createdAt,value
2022-12-06T00:03:37.463Z,3.04
2022-12-06T00:08:40.906Z,2.97
2022-12-06T00:13:45.075Z,3.08
2022-12-06T00:18:48.697Z,3.23
2022-12-06T00:23:54.000Z,3.16
2022-12-06T00:28:59.921Z,3.22
2022-12-06T00:34:02.751Z,3.23
2022-12-06T00:39:07.707Z,3.23
2022-12-06T00:44:12.774Z,3.21
2022-12-06T00:49:15.603Z,3.19
2022-12-06T00:54:18.396Z,3.15
2022-12-06T00:59:22.594Z,3.35
2022-12-06T01:04:25.409Z,3.31
2022-12-06T01:09:30.877Z,3.42
2022-12-06T01:14:34.963Z,3.46
2022-12-06T01:19:37.728Z,3.41
2022-12-06T01:24:40.506Z,3.53
2022-12-06T01:29:44.679Z,3.60
2022-12-06T01:34:52.023Z,3.64
2022-12-06T01:39:54.808Z,3.66
2022-12-06T01:44:59.504Z,3.86
2022-12-06T01:50:05.611Z,4.11
2022-12-06T01:55:10.662Z,4.29
2022-12-06T02:00:15.831Z,4.46
2022-12-06T02:05:19.169Z,4.57
2022-12-06T02:10:21.984Z,4.60
2022-12-06T02:15:37.171Z,4.49
2022-12-06T02:20:45.849Z,4.46
2022-12-06T02:26:17.056Z,4.70
2022-12-06T02:31:28.205Z,4.55
2022-12-06T02:36:39.788Z,4.61
2022-12-06T02:41:49.875Z,4.53
2022-12-06T02:46:56.548Z,4.44
2022-12-06T02:51:59.821Z,4.46
2022-12-06T02:57:02.558Z,4.56
2022-12-06T03:02:12.030Z,4.63
2022-12-06T03:07:29.599Z,4.60
2022-12-06T03:12:36.970Z,4.74
2022-12-06T03:17:47.906Z,4.78
2022-12-06T03:22:57.183Z,4.74
2022-12-06T03:28:01.747Z,4.78
2022-12-06T03:33:06.690Z,4.77
2022-12-06T03:38:12.984Z,4.75
2022-12-06T03:43:16.284Z,4.74
2022-12-06T03:48:23.651Z,4.64
2022-12-06T03:53:26.504Z,4.70
2022-12-06T03:58:29.277Z,4.71
2022-12-06T04:03:33.452Z,4.61
2022-12-06T04:08:36.423Z,4.67
2022-12-06T04:13:39.364Z,4.72
2022-12-06T04:18:43.455Z,4.66
2022-12-06T04:23:48.105Z,4.67
2022-12-06T04:29:10.323Z,4.81
2022-12-06T04:34:32.337Z,4.59
2022-12-06T04:39:35.467Z,4.78
2022-12-06T04:44:38.243Z,4.60
2022-12-06T04:49:42.376Z,4.53
2022-12-06T04:54:45.415Z,4.52
2022-12-06T04:59:49.368Z,4.70
2022-12-06T05:04:53.514Z,4.81
2022-12-06T05:09:56.298Z,4.70
2022-12-06T05:14:59.100Z,4.72
2022-12-06T05:20:03.224Z,4.85
2022-12-06T05:25:06.545Z,4.60
2022-12-06T05:30:10.648Z,4.71
2022-12-06T05:35:14.899Z,4.68
2022-12-06T05:40:17.944Z,4.71
2022-12-06T05:45:20.710Z,4.74
2022-12-06T05:50:24.989Z,4.79
2022-12-06T05:55:28.231Z,4.59
2022-12-06T06:00:32.240Z,4.45
2022-12-06T06:05:37.484Z,4.60
2022-12-06T06:10:40.276Z,4.46
2022-12-06T06:15:43.011Z,4.60
2022-12-06T06:20:52.565Z,4.61
2022-12-06T06:26:02.776Z,4.76
2022-12-06T06:31:09.207Z,4.76
2022-12-06T06:36:44.092Z,4.56
2022-12-06T06:41:50.420Z,4.72
2022-12-06T06:46:53.713Z,4.77
2022-12-06T06:51:56.505Z,4.47
2022-12-06T06:57:02.297Z,4.61
2022-12-06T07:02:05.098Z,4.55
2022-12-06T07:07:08.125Z,4.61
2022-12-06T07:12:12.507Z,4.67
2022-12-06T07:17:15.381Z,4.61
2022-12-06T07:22:18.268Z,4.69
2022-12-06T07:27:23.581Z,4.70
2022-12-06T07:32:26.355Z,4.61
2022-12-06T07:37:34.635Z,4.61
2022-12-06T07:43:10.541Z,4.58
2022-12-06T07:48:13.993Z,4.48
2022-12-06T07:53:17.990Z,4.53
2022-12-06T07:58:22.091Z,4.54
2022-12-06T08:03:24.959Z,4.63
2022-12-06T08:08:29.110Z,4.70
2022-12-06T08:13:34.716Z,4.65
2022-12-06T08:18:38.093Z,4.67
2022-12-06T08:23:40.848Z,4.72
2022-12-06T08:28:45.586Z,4.79
2022-12-06T08:33:48.399Z,4.79
2022-12-06T08:38:51.781Z,4.78
2022-12-06T08:43:56.322Z,4.80
2022-12-06T08:49:01.524Z,4.64
2022-12-06T08:54:05.228Z,4.66
2022-12-06T08:59:09.889Z,4.83
2022-12-06T09:04:13.405Z,4.98
2022-12-06T09:09:18.440Z,4.89
2022-12-06T09:14:23.243Z,4.59
2022-12-06T09:19:26.034Z,4.99
2022-12-06T09:24:28.853Z,4.90
2022-12-06T09:29:37.382Z,4.92
2022-12-06T09:34:43.084Z,4.74
2022-12-06T09:39:50.442Z,4.63
2022-12-06T09:45:25.939Z,4.61
2022-12-06T09:50:39.009Z,4.57
2022-12-06T09:55:55.111Z,4.67
2022-12-06T10:01:09.326Z,4.52
2022-12-06T10:06:15.624Z,4.56
2022-12-06T10:11:33.583Z,4.56
2022-12-06T10:16:55.170Z,4.64
2022-12-06T10:22:13.386Z,4.74
2022-12-06T10:27:24.787Z,4.74
2022-12-06T10:32:43.386Z,4.88
2022-12-06T10:37:59.114Z,4.94
2022-12-06T10:43:10.328Z,4.70
2022-12-06T10:48:21.043Z,4.81
2022-12-06T10:53:29.492Z,4.99
2022-12-06T10:58:34.673Z,5.12
2022-12-06T11:03:43.701Z,5.18
2022-12-06T11:08:52.170Z,5.06
2022-12-06T11:13:57.679Z,4.87
2022-12-06T11:19:11.692Z,4.90
2022-12-06T11:24:20.880Z,5.18
2022-12-06T11:29:23.707Z,5.25
2022-12-06T11:34:32.509Z,4.86
2022-12-06T11:39:35.721Z,5.33
2022-12-06T11:44:46.409Z,5.04
2022-12-06T11:49:56.724Z,4.91
2022-12-06T11:55:03.935Z,4.57
2022-12-06T12:00:18.771Z,4.50
2022-12-06T12:05:25.490Z,4.66
2022-12-06T12:10:33.436Z,4.62
2022-12-06T12:15:37.569Z,4.61
2022-12-06T12:20:47.302Z,4.62
2022-12-06T12:26:01.367Z,4.49
2022-12-06T12:31:11.300Z,4.63
2022-12-06T12:36:26.421Z,4.53
2022-12-06T12:41:34.041Z,4.32
2022-12-06T12:46:37.916Z,4.17
2022-12-06T12:51:47.850Z,4.08
2022-12-06T12:56:51.853Z,4.29
2022-12-06T13:01:59.619Z,4.46
2022-12-06T13:07:06.979Z,4.19
2022-12-06T13:12:16.249Z,4.17
2022-12-06T13:17:20.013Z,4.07
2022-12-06T13:22:29.123Z,3.87
2022-12-06T13:27:36.139Z,4.31
2022-12-06T13:32:44.026Z,4.49
2022-12-06T13:37:54.400Z,4.46
2022-12-06T13:42:57.136Z,4.08
2022-12-06T13:47:59.964Z,4.21
2022-12-06T13:53:04.902Z,4.12
2022-12-06T13:58:50.701Z,4.05
2022-12-06T14:03:56.905Z,3.97
2022-12-06T14:09:01.900Z,4.19
2022-12-06T14:14:08.855Z,4.00
2022-12-06T14:19:16.911Z,4.10
2022-12-06T14:24:29.798Z,4.28
2022-12-06T14:29:33.140Z,4.28
2022-12-06T14:34:37.451Z,3.98
2022-12-06T14:39:41.614Z,4.09
2022-12-06T14:44:49.005Z,4.00
2022-12-06T14:50:11.004Z,4.11
2022-12-06T14:55:19.755Z,4.18
2022-12-06T15:00:27.808Z,3.88
2022-12-06T15:05:35.512Z,4.22
2022-12-06T15:10:39.666Z,4.24
2022-12-06T15:15:44.038Z,3.85
2022-12-06T15:20:47.448Z,3.89
2022-12-06T15:25:51.729Z,3.85
2022-12-06T15:30:54.698Z,3.76
2022-12-06T15:35:58.269Z,3.52
2022-12-06T15:41:02.472Z,3.22
2022-12-06T15:46:05.974Z,2.89
2022-12-06T15:51:18.895Z,2.65
2022-12-06T15:56:26.634Z,2.57
2022-12-06T16:01:33.443Z,2.44
2022-12-06T16:06:36.332Z,2.34
2022-12-06T16:11:40.824Z,2.22
2022-12-06T16:16:43.963Z,2.10
2022-12-06T16:21:55.114Z,2.04
2022-12-06T16:26:59.372Z,1.95
2022-12-06T16:32:02.366Z,1.97
2022-12-06T16:37:07.356Z,1.89
2022-12-06T16:42:11.435Z,1.94
2022-12-06T16:47:15.238Z,1.91
2022-12-06T16:52:18.516Z,2.04
2022-12-06T16:57:22.687Z,2.19
2022-12-06T17:02:30.174Z,2.30
2022-12-06T17:07:33.449Z,2.39
2022-12-06T17:12:37.922Z,2.57
2022-12-06T17:17:41.095Z,2.63
2022-12-06T17:22:44.114Z,2.70
2022-12-06T17:27:49.521Z,2.75
2022-12-06T17:32:52.277Z,2.68
2022-12-06T17:37:55.203Z,2.61
2022-12-06T17:43:02.193Z,2.68
2022-12-06T17:48:07.386Z,2.74
2022-12-06T17:53:10.833Z,2.78
2022-12-06T17:58:15.335Z,2.68
2022-12-06T18:03:33.512Z,2.79
2022-12-06T18:08:36.499Z,2.74
2022-12-06T18:13:40.787Z,2.46
2022-12-06T18:18:52.034Z,2.57
2022-12-06T18:24:20.496Z,2.59
2022-12-06T18:29:22.810Z,2.65
2022-12-06T18:34:26.268Z,2.67
2022-12-06T18:39:34.211Z,2.59
2022-12-06T18:44:44.707Z,2.55
2022-12-06T18:50:28.273Z,2.50
2022-12-06T18:55:59.573Z,2.72
2022-12-06T19:01:13.830Z,2.76
2022-12-06T19:06:18.821Z,2.68
2022-12-06T19:11:32.964Z,2.59
2022-12-06T19:16:42.517Z,2.43
2022-12-06T19:21:52.174Z,2.43
2022-12-06T19:27:03.094Z,2.55
2022-12-06T19:32:16.299Z,2.62
2022-12-06T19:37:26.825Z,2.74
2022-12-06T19:43:17.850Z,2.67
2022-12-06T19:48:55.028Z,2.68
2022-12-06T20:00:09.655Z,2.86
2022-12-06T20:05:19.027Z,2.88
2022-12-06T20:10:50.793Z,2.83
2022-12-06T20:16:30.916Z,2.67
2022-12-06T20:21:55.868Z,2.85
2022-12-06T20:27:11.340Z,2.55
2022-12-06T20:32:30.406Z,2.64
2022-12-06T20:37:43.384Z,2.83
2022-12-06T20:43:09.523Z,2.98
2022-12-06T20:48:24.991Z,2.83
2022-12-06T20:53:32.290Z,2.93
2022-12-06T20:58:38.352Z,2.90
2022-12-06T21:03:42.026Z,2.91
2022-12-06T21:08:47.506Z,3.06
2022-12-06T21:13:50.853Z,2.88
2022-12-06T21:19:03.977Z,2.89
2022-12-06T21:24:12.307Z,3.14
2022-12-06T21:29:20.847Z,3.09
2022-12-06T21:34:29.390Z,3.02
2022-12-06T21:39:37.244Z,3.13
2022-12-06T21:44:44.886Z,3.14
2022-12-06T21:49:50.274Z,3.04
2022-12-06T21:54:54.430Z,2.95
2022-12-06T21:59:57.417Z,3.08
2022-12-06T22:05:00.296Z,3.08
2022-12-06T22:10:05.343Z,2.93
2022-12-06T22:15:09.165Z,3.17
2022-12-06T22:20:12.551Z,3.06
2022-12-06T22:25:47.333Z,3.25
2022-12-06T22:30:50.194Z,3.27
2022-12-06T22:35:53.072Z,2.99
2022-12-06T22:41:03.679Z,2.98
2022-12-06T22:46:10.118Z,3.19
2022-12-06T22:51:24.759Z,3.17
2022-12-06T22:56:34.099Z,3.54
2022-12-06T23:01:37.191Z,3.41
2022-12-06T23:06:40.281Z,3.33
2022-12-06T23:11:45.860Z,3.29
2022-12-06T23:16:51.553Z,3.07
2022-12-06T23:21:54.503Z,3.13
2022-12-06T23:27:00.284Z,3.06
2022-12-06T23:32:05.537Z,3.11
2022-12-06T23:37:10.590Z,3.23
2022-12-06T23:42:20.778Z,3.15
2022-12-06T23:47:23.920Z,3.12
2022-12-06T23:52:29.949Z,3.33
2022-12-06T23:57:36.023Z,3.32
